Time;durP1;ratioP1;P1;durP2;ratioP2;P2;SDS_P1;SDS_P2;PMS_P1;PMS_P2;Temp;Humidity;BMP_temperature;BMP_pressure;BME280_temperature;BME280_humidity;BME280_pressure;Samples;Min_cycle;Max_cycle;Signal;HPM_P1;HPM_P2
2023/05/22 00:01:41;;;;;;;26.90;20.00;;;16.90;99.90;;;;;;5114746;27;20138;-81
2023/05/22 00:04:07;;;;;;;28.30;18.83;;;16.80;99.90;;;;;;5110637;27;20035;-81
2023/05/22 00:06:33;;;;;;;23.08;18.13;;;16.80;99.90;;;;;;5111264;27;20050;-80
2023/05/22 00:08:59;;;;;;;34.90;19.50;;;16.80;99.90;;;;;;5132797;27;20039;-81
2023/05/22 00:11:25;;;;;;;25.17;20.90;;;16.70;99.90;;;;;;5130340;27;20701;-81
2023/05/22 00:13:50;;;;;;;25.83;19.60;;;16.70;99.90;;;;;;5132392;27;20429;-80
2023/05/22 00:16:16;;;;;;;30.63;19.60;;;16.70;99.90;;;;;;5130436;27;20038;-81
2023/05/22 00:18:43;;;;;;;27.17;19.40;;;16.60;99.90;;;;;;5114409;27;20042;-81
2023/05/22 00:21:09;;;;;;;28.63;21.08;;;16.60;99.90;;;;;;5132006;27;20460;-81
2023/05/22 00:23:35;;;;;;;27.77;20.13;;;16.60;99.90;;;;;;5131280;27;20039;-81
2023/05/22 00:26:01;;;;;;;27.42;20.95;;;16.60;99.90;;;;;;5100228;27;20127;-83
2023/05/22 00:28:27;;;;;;;28.10;21.48;;;16.60;99.90;;;;;;5113876;27;20081;-82
2023/05/22 00:30:53;;;;;;;24.58;20.13;;;16.60;99.90;;;;;;5113026;27;20042;-82
2023/05/22 00:33:19;;;;;;;26.02;21.10;;;16.60;99.90;;;;;;5130989;27;20095;-82
2023/05/22 00:35:45;;;;;;;30.98;22.42;;;16.60;99.90;;;;;;5131619;27;20039;-82
2023/05/22 00:38:29;;;;;;;24.40;20.83;;;16.60;99.90;;;;;;5128129;27;20472;-82
2023/05/22 00:40:54;;;;;;;23.75;19.10;;;16.60;99.90;;;;;;5143299;27;20042;-82
2023/05/22 00:43:20;;;;;;;26.27;21.30;;;16.60;99.90;;;;;;5122553;27;20038;-83
2023/05/22 00:45:47;;;;;;;28.25;20.77;;;16.60;99.90;;;;;;5126934;27;20036;-82
2023/05/22 00:48:14;;;;;;;26.83;21.00;;;16.50;99.90;;;;;;5105876;27;20388;-82
2023/05/22 00:50:40;;;;;;;26.10;19.52;;;16.50;99.90;;;;;;5130563;27;20042;-82
2023/05/22 00:53:06;;;;;;;26.25;20.90;;;16.50;99.90;;;;;;5113425;27;20070;-82
2023/05/22 00:55:32;;;;;;;31.20;21.77;;;16.50;99.90;;;;;;5130106;27;20034;-82
2023/05/22 00:57:58;;;;;;;26.63;21.15;;;16.40;99.90;;;;;;5131465;27;20050;-82
2023/05/22 01:00:24;;;;;;;25.42;19.60;;;16.40;99.90;;;;;;5128655;27;20506;-82
2023/05/22 01:02:50;;;;;;;37.33;21.55;;;16.40;99.90;;;;;;5110450;27;20054;-82
2023/05/22 01:05:16;;;;;;;29.50;20.50;;;16.40;99.90;;;;;;5126737;27;20043;-82
2023/05/22 01:07:44;;;;;;;28.85;21.38;;;16.40;99.90;;;;;;5135889;27;20050;-82
2023/05/22 01:10:10;;;;;;;29.85;21.58;;;16.40;99.90;;;;;;5129516;27;20052;-82
2023/05/22 01:12:48;;;;;;;30.17;24.52;;;16.30;99.90;;;;;;5113352;27;20050;-82
2023/05/22 01:15:23;;;;;;;30.35;22.48;;;16.30;99.90;;;;;;5113803;27;20089;-82
2023/05/22 01:18:09;;;;;;;27.40;21.67;;;16.30;99.90;;;;;;5125532;27;20505;-82
2023/05/22 01:20:47;;;;;;;27.23;22.30;;;16.30;99.90;;;;;;5112676;27;20054;-82
2023/05/22 01:23:33;;;;;;;31.88;23.00;;;16.30;99.90;;;;;;5129316;27;20385;-82
2023/05/22 01:26:15;;;;;;;26.90;22.35;;;16.30;99.90;;;;;;5112769;27;20091;-82
2023/05/22 01:29:07;;;;;;;30.65;24.23;;;16.30;99.90;;;;;;5126625;27;20043;-82
2023/05/22 01:31:38;;;;;;;26.00;22.02;;;16.30;99.90;;;;;;5127376;27;20397;-82
2023/05/22 01:34:06;;;;;;;25.73;21.40;;;16.30;99.90;;;;;;5129687;27;20054;-82
2023/05/22 01:36:35;;;;;;;32.95;22.67;;;16.30;99.90;;;;;;5125873;27;20123;-82
2023/05/22 01:39:04;;;;;;;27.25;22.50;;;16.30;99.90;;;;;;5106265;27;20967;-82
2023/05/22 01:41:32;;;;;;;32.45;24.08;;;16.30;99.90;;;;;;5099293;27;20134;-82
2023/05/22 01:43:59;;;;;;;28.58;24.23;;;16.30;99.90;;;;;;5126755;27;20141;-82
2023/05/22 01:46:28;;;;;;;27.50;21.92;;;16.30;99.90;;;;;;5128311;27;20081;-82
2023/05/22 01:48:53;;;;;;;27.13;22.75;;;16.40;99.90;;;;;;5130421;27;20091;-82
2023/05/22 01:51:42;;;;;;;28.00;22.17;;;16.30;99.90;;;;;;5111411;27;20042;-82
2023/05/22 01:54:34;;;;;;;33.15;23.95;;;16.30;99.90;;;;;;5130528;27;20039;-82
2023/05/22 01:57:12;;;;;;;34.10;24.27;;;16.30;99.90;;;;;;5109063;27;20405;-82
2023/05/22 01:59:44;;;;;;;28.50;21.40;;;16.40;99.90;;;;;;5118442;27;20042;-82
2023/05/22 02:02:12;;;;;;;25.20;22.15;;;16.40;99.90;;;;;;5128873;27;20390;-82
2023/05/22 02:04:43;;;;;;;27.85;22.38;;;16.30;99.90;;;;;;5109106;27;20039;-82
2023/05/22 02:07:12;;;;;;;32.17;22.80;;;16.40;99.90;;;;;;5117790;27;20035;-82
2023/05/22 02:09:40;;;;;;;26.05;21.38;;;16.40;99.90;;;;;;5129610;27;20481;-82
2023/05/22 02:12:06;;;;;;;25.73;20.95;;;16.30;99.90;;;;;;5129095;27;20035;-82
2023/05/22 02:14:33;;;;;;;30.23;21.38;;;16.40;99.90;;;;;;5129149;27;20442;-81
2023/05/22 02:17:00;;;;;;;26.15;21.80;;;16.30;99.90;;;;;;5129143;27;20482;-82
2023/05/22 02:19:27;;;;;;;25.85;21.63;;;16.30;99.90;;;;;;5128825;27;20154;-82
2023/05/22 02:21:53;;;;;;;28.42;21.58;;;16.30;99.90;;;;;;5129478;27;20099;-82
2023/05/22 02:24:19;;;;;;;26.48;21.13;;;16.30;99.90;;;;;;5112407;27;20066;-82
2023/05/22 02:26:46;;;;;;;29.83;22.05;;;16.30;99.90;;;;;;5129519;27;20043;-82
2023/05/22 02:29:12;;;;;;;27.15;21.02;;;16.30;99.90;;;;;;5111669;27;20047;-82
2023/05/22 02:31:38;;;;;;;26.60;22.45;;;16.30;99.90;;;;;;5125407;28;20098;-82
2023/05/22 02:34:05;;;;;;;33.55;22.33;;;16.40;99.90;;;;;;5123948;27;20482;-82
2023/05/22 02:36:31;;;;;;;27.50;22.98;;;16.40;99.90;;;;;;5129355;27;20501;-82
2023/05/22 02:38:58;;;;;;;25.67;21.95;;;16.30;99.90;;;;;;5130127;27;20673;-81
2023/05/22 02:41:24;;;;;;;27.92;21.45;;;16.30;99.90;;;;;;5129830;27;20086;-82
2023/05/22 02:43:50;;;;;;;27.05;21.10;;;16.30;99.90;;;;;;5129805;27;20070;-82
2023/05/22 02:46:15;;;;;;;29.17;23.73;;;16.30;99.90;;;;;;5128185;27;20050;-82
2023/05/22 02:48:41;;;;;;;29.35;22.70;;;16.30;99.90;;;;;;5148604;27;20035;-82
2023/05/22 02:51:07;;;;;;;30.55;23.15;;;16.30;99.90;;;;;;5112961;27;20539;-81
2023/05/22 02:53:34;;;;;;;29.63;23.30;;;16.30;99.90;;;;;;5128300;27;20133;-82
2023/05/22 02:56:00;;;;;;;27.40;22.92;;;16.30;99.90;;;;;;5130166;27;20047;-82
2023/05/22 02:58:26;;;;;;;29.08;24.55;;;16.30;99.90;;;;;;5129224;27;20043;-82
2023/05/22 03:00:52;;;;;;;41.92;24.55;;;16.20;99.90;;;;;;5111612;27;20039;-81
2023/05/22 03:03:18;;;;;;;34.70;26.48;;;16.20;99.90;;;;;;5113030;27;20057;-82
2023/05/22 03:05:45;;;;;;;29.10;24.73;;;16.20;99.90;;;;;;5129862;27;20416;-82
2023/05/22 03:08:11;;;;;;;32.00;26.02;;;16.20;99.90;;;;;;5129521;27;20039;-82
2023/05/22 03:10:37;;;;;;;32.97;25.02;;;16.20;99.90;;;;;;5129684;27;20059;-82
2023/05/22 03:13:03;;;;;;;32.78;24.45;;;16.20;99.90;;;;;;5127895;27;20462;-82
2023/05/22 03:15:29;;;;;;;32.35;24.85;;;16.20;99.90;;;;;;5118159;27;20554;-82
2023/05/22 03:17:55;;;;;;;31.13;25.48;;;16.20;99.90;;;;;;5112210;27;20047;-82
2023/05/22 03:20:21;;;;;;;27.38;24.00;;;16.10;99.90;;;;;;5129319;27;20431;-81
2023/05/22 03:22:46;;;;;;;31.30;24.50;;;16.10;99.90;;;;;;5112152;27;20039;-82
2023/05/22 03:25:12;;;;;;;32.47;25.60;;;16.10;99.90;;;;;;5123340;27;20073;-82
2023/05/22 03:27:39;;;;;;;30.80;24.35;;;16.10;99.90;;;;;;5127724;27;20031;-81
2023/05/22 03:30:06;;;;;;;30.48;24.98;;;16.10;99.90;;;;;;5111498;27;20056;-82
2023/05/22 03:32:36;;;;;;;34.25;25.52;;;16.10;99.90;;;;;;5114228;27;20458;-82
2023/05/22 03:35:02;;;;;;;28.60;24.98;;;16.10;99.90;;;;;;5115395;27;20042;-81
2023/05/22 03:37:28;;;;;;;28.98;25.13;;;16.10;99.90;;;;;;5131993;27;20031;-81
2023/05/22 03:39:54;;;;;;;33.17;25.52;;;16.10;99.90;;;;;;5129653;27;20051;-82
2023/05/22 03:42:19;;;;;;;32.03;24.23;;;16.10;99.90;;;;;;5111656;27;20027;-82
2023/05/22 03:44:45;;;;;;;33.67;26.63;;;16.10;99.90;;;;;;5128408;27;20121;-82
2023/05/22 03:47:11;;;;;;;30.08;25.15;;;16.00;99.90;;;;;;5111905;27;20509;-82
2023/05/22 03:49:36;;;;;;;35.17;25.85;;;16.00;99.90;;;;;;5127770;27;20047;-82
2023/05/22 03:52:02;;;;;;;29.75;26.38;;;16.00;99.90;;;;;;5111983;27;20042;-82
2023/05/22 03:54:28;;;;;;;31.23;25.95;;;16.00;99.90;;;;;;5132448;27;20122;-82
2023/05/22 03:56:54;;;;;;;38.25;26.88;;;15.90;99.90;;;;;;5131565;27;20492;-82
2023/05/22 03:59:20;;;;;;;33.90;26.75;;;15.90;99.90;;;;;;5131805;27;20049;-82
2023/05/22 04:01:47;;;;;;;31.73;26.77;;;15.90;99.90;;;;;;5115147;27;20530;-82
2023/05/22 04:04:13;;;;;;;32.03;26.52;;;15.90;99.90;;;;;;5131214;27;20504;-81
2023/05/22 04:06:45;;;;;;;32.55;26.98;;;15.90;99.90;;;;;;5111493;27;20043;-82
2023/05/22 04:09:12;;;;;;;35.28;27.45;;;15.90;99.90;;;;;;5123072;27;20035;-82
2023/05/22 04:11:38;;;;;;;38.28;27.05;;;15.90;99.90;;;;;;5131400;27;20050;-82
2023/05/22 04:14:05;;;;;;;32.85;26.52;;;15.90;99.90;;;;;;5132086;27;20058;-82
2023/05/22 04:16:32;;;;;;;34.08;25.95;;;15.90;99.90;;;;;;5131216;27;20047;-82
2023/05/22 04:18:58;;;;;;;34.00;26.77;;;15.90;99.90;;;;;;5110772;27;20051;-82
2023/05/22 04:21:23;;;;;;;36.58;26.08;;;15.80;99.90;;;;;;5112734;27;20114;-82
2023/05/22 04:23:49;;;;;;;33.00;26.25;;;15.90;99.90;;;;;;5114707;27;20111;-82
2023/05/22 04:26:16;;;;;;;37.33;26.17;;;15.90;99.90;;;;;;5113504;27;20039;-81
2023/05/22 04:28:44;;;;;;;31.88;24.80;;;15.80;99.90;;;;;;5103140;27;20050;-82
2023/05/22 04:31:13;;;;;;;31.98;24.90;;;15.90;99.90;;;;;;5107296;27;20471;-82
2023/05/22 04:33:39;;;;;;;33.40;25.80;;;15.90;99.90;;;;;;5103190;27;20047;-82
2023/05/22 04:36:08;;;;;;;33.83;23.63;;;16.00;99.90;;;;;;5112538;27;20052;-81
2023/05/22 04:38:36;;;;;;;32.00;24.48;;;16.00;99.90;;;;;;5127025;27;20061;-82
2023/05/22 04:41:02;;;;;;;31.55;23.95;;;16.00;99.90;;;;;;5131139;27;20489;-82
2023/05/22 04:43:28;;;;;;;33.47;24.55;;;16.00;99.90;;;;;;5130370;27;20050;-82
2023/05/22 04:45:55;;;;;;;29.65;23.55;;;16.00;99.90;;;;;;5125943;27;20046;-81
2023/05/22 04:48:21;;;;;;;26.48;22.27;;;16.10;99.90;;;;;;5113740;27;20047;-81
2023/05/22 04:50:48;;;;;;;34.90;20.85;;;16.10;99.90;;;;;;5111138;27;20434;-81
2023/05/22 04:53:14;;;;;;;29.85;20.83;;;16.10;99.90;;;;;;5118656;27;20047;-82
2023/05/22 04:55:40;;;;;;;30.33;20.42;;;16.10;99.90;;;;;;5108802;27;20094;-81
2023/05/22 04:58:06;;;;;;;30.70;20.38;;;16.20;99.90;;;;;;5115925;27;20470;-82
2023/05/22 05:00:32;;;;;;;26.25;18.98;;;16.20;99.90;;;;;;5111739;27;20165;-81
2023/05/22 05:02:59;;;;;;;27.15;19.27;;;16.20;99.90;;;;;;5121613;27;20559;-82
2023/05/22 05:05:25;;;;;;;26.48;19.80;;;16.30;99.90;;;;;;5123039;27;20052;-82
2023/05/22 05:07:52;;;;;;;31.80;19.05;;;16.30;99.90;;;;;;5136394;27;20047;-82
2023/05/22 05:10:18;;;;;;;25.85;19.17;;;16.40;99.90;;;;;;5122860;27;20084;-82
2023/05/22 05:12:44;;;;;;;27.15;19.83;;;16.40;99.90;;;;;;5103490;27;20027;-83
2023/05/22 05:15:10;;;;;;;26.73;19.65;;;16.40;99.90;;;;;;5104350;27;20087;-82
2023/05/22 05:17:36;;;;;;;28.65;19.90;;;16.40;99.90;;;;;;5102026;27;20354;-82
2023/05/22 05:20:05;;;;;;;28.98;20.17;;;16.40;99.90;;;;;;5118394;27;20039;-81
2023/05/22 05:22:31;;;;;;;27.17;18.27;;;16.40;99.90;;;;;;5105494;27;20035;-81
2023/05/22 05:24:56;;;;;;;30.65;19.63;;;16.40;99.90;;;;;;5127627;27;20099;-82
2023/05/22 05:27:22;;;;;;;26.15;19.02;;;16.40;99.90;;;;;;5105536;27;20493;-81
2023/05/22 05:29:48;;;;;;;23.65;19.23;;;16.40;99.90;;;;;;5109376;27;20092;-81
2023/05/22 05:32:15;;;;;;;25.15;17.83;;;16.40;99.90;;;;;;5122513;27;20508;-82
2023/05/22 05:34:40;;;;;;;21.23;17.50;;;16.40;99.90;;;;;;5111490;27;20122;-82
2023/05/22 05:37:06;;;;;;;27.27;17.13;;;16.40;99.90;;;;;;5111060;27;20092;-82
2023/05/22 05:39:32;;;;;;;24.27;16.90;;;16.50;99.90;;;;;;5105603;27;20046;-82
2023/05/22 05:41:58;;;;;;;27.27;16.40;;;16.50;99.90;;;;;;5094709;27;20043;-82
2023/05/22 05:44:24;;;;;;;24.63;15.50;;;16.50;99.90;;;;;;5111591;27;20043;-82
2023/05/22 05:46:51;;;;;;;23.10;13.50;;;16.60;99.90;;;;;;5104518;27;20035;-81
2023/05/22 05:49:18;;;;;;;19.45;13.73;;;16.60;99.90;;;;;;5106705;27;20121;-81
2023/05/22 05:51:44;;;;;;;18.55;13.38;;;16.70;99.90;;;;;;5121643;27;20057;-82
2023/05/22 05:54:10;;;;;;;20.42;13.90;;;16.70;99.90;;;;;;5110609;27;20046;-82
2023/05/22 05:56:36;;;;;;;18.48;13.55;;;16.80;99.90;;;;;;5106638;27;20467;-82
2023/05/22 05:59:02;;;;;;;24.77;13.15;;;16.80;99.90;;;;;;5113430;27;20543;-82
2023/05/22 06:01:31;;;;;;;20.95;11.93;;;16.90;99.90;;;;;;5128827;27;20381;-82
2023/05/22 06:04:01;;;;;;;20.17;12.85;;;16.90;99.90;;;;;;5129374;27;20481;-82
2023/05/22 06:06:29;;;;;;;21.92;12.30;;;17.00;99.90;;;;;;5112343;27;20058;-82
2023/05/22 06:08:55;;;;;;;20.70;12.45;;;17.00;99.90;;;;;;5109903;27;20043;-82
2023/05/22 06:11:22;;;;;;;16.85;11.32;;;17.00;99.90;;;;;;5127493;27;20328;-82
2023/05/22 06:13:47;;;;;;;15.48;11.15;;;17.00;99.90;;;;;;5109146;27;20039;-82
2023/05/22 06:16:13;;;;;;;16.63;11.68;;;17.00;99.90;;;;;;5110570;27;20042;-81
2023/05/22 06:18:39;;;;;;;19.77;11.60;;;17.00;99.90;;;;;;5112231;27;20368;-82
2023/05/22 06:21:05;;;;;;;23.02;10.73;;;17.00;99.90;;;;;;5128979;27;20114;-82
2023/05/22 06:23:31;;;;;;;26.60;12.10;;;17.00;99.90;;;;;;5129612;27;20054;-82
2023/05/22 06:25:57;;;;;;;22.98;11.88;;;16.90;99.90;;;;;;5127727;27;20444;-82
2023/05/22 06:28:23;;;;;;;18.25;10.98;;;17.00;99.90;;;;;;5125940;28;20047;-82
2023/05/22 06:30:49;;;;;;;30.00;11.63;;;17.00;99.90;;;;;;5105466;27;20042;-80
2023/05/22 06:33:15;;;;;;;26.17;12.15;;;17.00;99.90;;;;;;5129638;27;20508;-81
2023/05/22 06:35:41;;;;;;;23.20;11.75;;;17.00;99.90;;;;;;5126765;27;20079;-81
2023/05/22 06:38:07;;;;;;;23.67;10.88;;;17.10;99.90;;;;;;5126530;27;20077;-82
2023/05/22 06:40:33;;;;;;;23.20;9.77;;;17.10;99.90;;;;;;5109038;27;20597;-82
2023/05/22 06:43:00;;;;;;;27.20;10.40;;;17.10;99.90;;;;;;5112294;27;20035;-82
2023/05/22 06:45:25;;;;;;;20.45;10.43;;;17.10;99.90;;;;;;5110426;27;20077;-82
2023/05/22 06:47:53;;;;;;;24.73;10.10;;;17.10;99.90;;;;;;5126413;28;20071;-82
2023/05/22 06:50:20;;;;;;;19.60;9.02;;;17.10;99.90;;;;;;5122631;27;20043;-82
2023/05/22 06:52:47;;;;;;;24.10;8.93;;;17.00;99.90;;;;;;5098595;28;20047;-82
2023/05/22 06:55:12;;;;;;;20.50;9.77;;;17.00;99.90;;;;;;5108240;27;20043;-82
2023/05/22 06:57:38;;;;;;;25.63;10.40;;;17.00;99.90;;;;;;5125864;28;20096;-82
2023/05/22 07:00:08;;;;;;;22.83;10.75;;;16.90;99.90;;;;;;5108165;27;20034;-82
2023/05/22 07:02:34;;;;;;;26.70;9.25;;;16.90;99.90;;;;;;5129167;27;20074;-82
2023/05/22 07:05:00;;;;;;;20.88;9.05;;;16.90;99.90;;;;;;5112514;27;20042;-82
2023/05/22 07:07:25;;;;;;;21.13;8.07;;;16.90;99.90;;;;;;5124463;28;20452;-81
2023/05/22 07:09:51;;;;;;;21.95;8.50;;;16.80;99.90;;;;;;5123331;28;20086;-82
2023/05/22 07:12:17;;;;;;;26.52;8.70;;;16.80;99.90;;;;;;5111932;28;20046;-82
2023/05/22 07:14:42;;;;;;;20.90;7.45;;;16.70;99.90;;;;;;5125740;27;20058;-82
2023/05/22 07:17:08;;;;;;;25.67;8.13;;;16.70;99.90;;;;;;5125534;28;20509;-81
2023/05/22 07:19:34;;;;;;;32.42;8.40;;;16.60;99.90;;;;;;5108924;27;20041;-82
2023/05/22 07:22:00;;;;;;;31.25;8.23;;;16.50;99.90;;;;;;5112156;27;20122;-81
2023/05/22 07:24:26;;;;;;;28.75;8.13;;;16.40;99.90;;;;;;5129665;27;20959;-82
2023/05/22 07:26:51;;;;;;;28.83;8.07;;;16.40;99.90;;;;;;5133328;27;20050;-81
2023/05/22 07:29:17;;;;;;;25.45;8.30;;;16.40;99.90;;;;;;5108211;27;20521;-81
2023/05/22 07:31:43;;;;;;;29.10;8.25;;;16.30;99.90;;;;;;5131323;27;20043;-82
2023/05/22 07:34:08;;;;;;;28.92;8.57;;;16.20;99.90;;;;;;5111007;27;20667;-81
2023/05/22 07:36:34;;;;;;;30.02;9.52;;;16.20;99.90;;;;;;5130432;27;20088;-82
2023/05/22 07:39:00;;;;;;;28.00;9.05;;;16.20;99.90;;;;;;5133057;27;20474;-82
2023/05/22 07:41:26;;;;;;;29.70;9.20;;;16.10;99.90;;;;;;5131874;27;20051;-83
2023/05/22 07:43:52;;;;;;;29.10;8.45;;;16.20;99.90;;;;;;5128570;27;20043;-82
2023/05/22 07:46:18;;;;;;;25.90;9.32;;;16.20;99.90;;;;;;5124062;27;20054;-82
2023/05/22 07:48:43;;;;;;;35.60;9.07;;;16.20;99.90;;;;;;5117613;27;20470;-83
2023/05/22 07:51:09;;;;;;;26.00;7.97;;;16.20;99.90;;;;;;5115447;27;20474;-83
2023/05/22 07:53:35;;;;;;;29.48;9.65;;;16.10;99.90;;;;;;5132204;27;20126;-83
2023/05/22 07:56:01;;;;;;;24.17;8.80;;;16.10;99.90;;;;;;5114200;27;20043;-82
2023/05/22 07:58:26;;;;;;;24.52;8.35;;;16.10;99.90;;;;;;5132084;27;20046;-82
2023/05/22 08:00:52;;;;;;;32.90;9.75;;;16.10;99.90;;;;;;5127499;27;20035;-82
2023/05/22 08:03:18;;;;;;;27.85;10.07;;;16.00;99.90;;;;;;5126969;27;20229;-82
2023/05/22 08:05:45;;;;;;;25.35;8.93;;;16.00;99.90;;;;;;5131944;27;20105;-82
2023/05/22 08:08:10;;;;;;;28.17;9.02;;;16.00;99.90;;;;;;5108928;27;20411;-83
2023/05/22 08:10:37;;;;;;;25.30;8.82;;;16.00;99.90;;;;;;5116519;27;20050;-83
2023/05/22 08:13:05;;;;;;;27.52;9.50;;;16.00;99.90;;;;;;5097269;27;20042;-83
2023/05/22 08:15:33;;;;;;;23.58;8.52;;;16.00;99.90;;;;;;5111959;27;20057;-83
2023/05/22 08:17:59;;;;;;;24.92;9.35;;;16.00;99.90;;;;;;5107945;27;20043;-84
2023/05/22 08:20:26;;;;;;;24.08;8.93;;;16.00;99.90;;;;;;5126850;27;20111;-83
2023/05/22 08:22:53;;;;;;;30.33;9.77;;;16.10;99.90;;;;;;5108017;27;20043;-83
2023/05/22 08:25:19;;;;;;;30.25;9.52;;;16.10;99.90;;;;;;5130420;27;20486;-83
2023/05/22 08:27:45;;;;;;;25.70;9.40;;;16.10;99.90;;;;;;5113930;27;20505;-83
2023/05/22 08:30:10;;;;;;;26.55;10.38;;;16.10;99.90;;;;;;5129938;27;20041;-83
2023/05/22 08:32:36;;;;;;;27.83;10.40;;;16.10;99.90;;;;;;5126206;27;20503;-83
2023/05/22 08:35:02;;;;;;;30.27;10.77;;;16.10;99.90;;;;;;5136317;27;20047;-82
2023/05/22 08:37:28;;;;;;;21.55;9.65;;;16.20;99.90;;;;;;5109719;27;20137;-82
2023/05/22 08:39:53;;;;;;;25.38;10.50;;;16.20;99.90;;;;;;5131645;27;20146;-82
2023/05/22 08:42:19;;;;;;;24.27;10.40;;;16.20;99.90;;;;;;5113825;27;20072;-82
2023/05/22 08:44:46;;;;;;;25.58;9.73;;;16.30;99.90;;;;;;5130068;27;20030;-81
2023/05/22 08:47:12;;;;;;;27.73;10.57;;;16.30;99.90;;;;;;5130815;27;20038;-81
2023/05/22 08:49:39;;;;;;;28.73;10.90;;;16.30;99.90;;;;;;5114055;27;20121;-81
2023/05/22 08:52:12;;;;;;;26.45;10.65;;;16.30;99.90;;;;;;5109932;27;20042;-82
2023/05/22 08:54:42;;;;;;;22.92;10.63;;;16.30;99.90;;;;;;5142012;27;20038;-82
2023/05/22 08:57:08;;;;;;;27.35;10.52;;;16.30;99.90;;;;;;5131016;27;20468;-81
2023/05/22 08:59:36;;;;;;;27.77;10.73;;;16.30;99.90;;;;;;5109153;27;20039;-81
2023/05/22 09:02:04;;;;;;;25.83;10.70;;;16.30;99.90;;;;;;5130156;27;20046;-81
2023/05/22 09:04:30;;;;;;;24.63;11.38;;;16.20;99.90;;;;;;5113446;27;20072;-81
2023/05/22 09:06:55;;;;;;;26.52;10.57;;;16.30;99.90;;;;;;5126913;27;20047;-81
2023/05/22 09:09:21;;;;;;;35.47;11.73;;;16.20;99.90;;;;;;5105774;27;20081;-81
2023/05/22 09:11:47;;;;;;;22.88;10.63;;;16.30;99.90;;;;;;5107670;27;20043;-81
2023/05/22 09:14:14;;;;;;;22.10;11.35;;;16.30;99.90;;;;;;5122811;27;20488;-81
2023/05/22 09:16:46;;;;;;;21.00;9.80;;;16.40;99.90;;;;;;5095926;27;20082;-81
2023/05/22 09:19:13;;;;;;;22.70;10.45;;;16.50;99.90;;;;;;5106811;27;20485;-81
2023/05/22 09:21:39;;;;;;;23.33;10.68;;;16.70;99.90;;;;;;5113054;27;20076;-81
2023/05/22 09:24:08;;;;;;;22.80;9.90;;;16.80;99.90;;;;;;5130349;27;20071;-81
2023/05/22 09:26:34;;;;;;;25.15;10.18;;;17.00;99.90;;;;;;5109068;27;20055;-82
2023/05/22 09:29:00;;;;;;;22.60;9.85;;;17.20;99.90;;;;;;5105538;27;20085;-81
2023/05/22 09:31:28;;;;;;;25.63;10.48;;;17.50;99.90;;;;;;5108494;27;20071;-81
2023/05/22 09:33:55;;;;;;;23.58;9.65;;;17.70;99.90;;;;;;5123875;27;20042;-81
2023/05/22 09:36:21;;;;;;;19.80;9.48;;;17.90;99.90;;;;;;5129652;27;20080;-82
2023/05/22 09:38:46;;;;;;;23.90;9.45;;;18.00;99.90;;;;;;5128590;27;20046;-81
2023/05/22 09:41:12;;;;;;;18.13;9.07;;;18.10;99.90;;;;;;5129557;27;20413;-81
2023/05/22 09:43:48;;;;;;;25.67;10.55;;;18.20;99.90;;;;;;5112470;27;20042;-82
2023/05/22 09:46:15;;;;;;;22.67;9.63;;;18.40;99.90;;;;;;5128831;27;20081;-82
2023/05/22 09:48:41;;;;;;;21.10;8.40;;;18.50;99.90;;;;;;5129040;27;20042;-82
2023/05/22 09:51:09;;;;;;;24.13;8.93;;;18.80;99.90;;;;;;5130585;27;20041;-83
2023/05/22 09:53:35;;;;;;;22.88;9.25;;;19.00;99.90;;;;;;5129924;27;21243;-83
2023/05/22 09:56:07;;;;;;;20.90;8.77;;;19.20;99.90;;;;;;5112681;27;20037;-83
2023/05/22 09:58:37;;;;;;;19.00;9.15;;;19.30;99.90;;;;;;5111402;27;20027;-84
2023/05/22 10:01:03;;;;;;;21.95;9.32;;;19.50;99.90;;;;;;5111885;27;20142;-83
2023/05/22 10:03:32;;;;;;;21.73;9.43;;;19.50;99.90;;;;;;5111456;27;20031;-85
2023/05/22 10:05:59;;;;;;;20.92;9.32;;;19.60;99.90;;;;;;5122507;27;20051;-84
2023/05/22 10:08:27;;;;;;;21.67;9.57;;;19.70;99.90;;;;;;5099972;27;20038;-85
2023/05/22 10:10:53;;;;;;;30.98;10.23;;;19.80;99.90;;;;;;5105818;28;20127;-84
2023/05/22 10:13:20;;;;;;;23.90;10.10;;;19.90;99.90;;;;;;5110349;27;20126;-85
2023/05/22 10:15:48;;;;;;;29.92;10.48;;;20.00;99.90;;;;;;5096422;28;20546;-85
2023/05/22 10:18:15;;;;;;;20.55;10.13;;;20.00;99.90;;;;;;5110791;27;20164;-84
2023/05/22 10:20:41;;;;;;;26.58;10.90;;;20.00;99.90;;;;;;5126277;28;20055;-84
2023/05/22 10:23:08;;;;;;;27.13;10.55;;;20.00;99.90;;;;;;5110860;27;20050;-85
2023/05/22 10:25:36;;;;;;;26.92;10.57;;;20.10;99.90;;;;;;5117850;28;20130;-83
2023/05/22 10:28:03;;;;;;;23.08;10.70;;;20.10;99.90;;;;;;5129015;27;20039;-84
2023/05/22 10:30:49;;;;;;;22.80;10.13;;;20.20;99.90;;;;;;5126110;27;20509;-84
2023/05/22 10:33:20;;;;;;;26.27;10.35;;;20.20;99.90;;;;;;5126601;28;20043;-84
2023/05/22 10:35:54;;;;;;;23.65;10.35;;;20.30;99.90;;;;;;5125981;27;20450;-84
2023/05/22 10:38:56;;;;;;;23.38;10.35;;;20.30;99.90;;;;;;5111873;27;20042;-85
2023/05/22 10:41:23;;;;;;;25.95;10.20;;;20.40;99.90;;;;;;5109615;28;20047;-84
2023/05/22 10:43:50;;;;;;;28.75;11.50;;;20.40;99.90;;;;;;5108325;27;20088;-85
2023/05/22 10:46:16;;;;;;;29.40;10.32;;;20.50;99.90;;;;;;5108150;28;20039;-85
2023/05/22 10:48:45;;;;;;;23.45;9.98;;;20.40;99.90;;;;;;5109449;27;20397;-85
2023/05/22 10:51:12;;;;;;;24.85;10.38;;;20.40;99.90;;;;;;5125548;27;20126;-83
2023/05/22 10:53:39;;;;;;;25.05;10.02;;;20.40;99.90;;;;;;5098494;27;20072;-84
2023/05/22 10:56:11;;;;;;;24.13;9.50;;;20.50;99.90;;;;;;5117925;27;20137;-83
2023/05/22 10:58:38;;;;;;;23.10;10.68;;;20.50;99.90;;;;;;5100632;27;20041;-84
2023/05/22 11:01:11;;;;;;;27.73;10.95;;;20.50;99.90;;;;;;5117397;27;20050;-84
2023/05/22 11:03:58;;;;;;;25.48;11.02;;;20.60;99.90;;;;;;5108213;27;20088;-84
2023/05/22 11:06:34;;;;;;;21.85;11.18;;;20.60;99.90;;;;;;5125759;27;20051;-84
2023/05/22 11:09:21;;;;;;;21.48;10.90;;;20.60;99.90;;;;;;5117358;27;20050;-84
2023/05/22 11:12:18;;;;;;;23.75;12.07;;;20.60;99.90;;;;;;5110474;27;20039;-84
2023/05/22 11:14:50;;;;;;;21.25;11.82;;;20.60;99.90;;;;;;5097585;27;20075;-83
2023/05/22 11:17:21;;;;;;;22.88;11.88;;;20.70;99.90;;;;;;5120417;27;20055;-85
2023/05/22 11:19:56;;;;;;;21.63;11.98;;;20.80;99.90;;;;;;5101457;27;20049;-84
2023/05/22 11:22:22;;;;;;;24.00;11.45;;;21.10;99.90;;;;;;5083092;28;20046;-84
2023/05/22 11:24:48;;;;;;;19.65;10.98;;;21.40;99.90;;;;;;5093191;28;20039;-83
2023/05/22 11:27:15;;;;;;;18.23;10.02;;;21.70;99.90;;;;;;5091265;28;20040;-84
2023/05/22 11:29:43;;;;;;;14.35;10.45;;;21.80;99.90;;;;;;5085218;27;20035;-85
2023/05/22 11:32:14;;;;;;;18.27;11.13;;;21.80;99.90;;;;;;5092382;28;20122;-87
2023/05/22 11:34:39;;;;;;;15.73;10.48;;;21.80;99.90;;;;;;5072659;28;20071;-84
2023/05/22 11:37:05;;;;;;;17.48;10.15;;;21.80;99.90;;;;;;5099762;28;20151;-83
2023/05/22 11:39:32;;;;;;;13.13;9.65;;;21.90;99.90;;;;;;5074640;28;20455;-82
2023/05/22 11:41:57;;;;;;;17.35;10.10;;;22.10;99.90;;;;;;5088401;28;20052;-87
2023/05/22 11:44:26;;;;;;;14.80;9.82;;;22.30;99.90;;;;;;5087359;28;20475;-82
2023/05/22 11:46:53;;;;;;;14.93;9.15;;;22.40;99.90;;;;;;5105001;28;20036;-82
2023/05/22 11:49:22;;;;;;;14.93;10.13;;;22.50;99.90;;;;;;5108256;28;20055;-82
2023/05/22 11:51:49;;;;;;;17.33;11.32;;;22.70;99.90;;;;;;5075574;28;20035;-82
2023/05/22 11:54:18;;;;;;;16.33;11.63;;;22.80;99.90;;;;;;5107654;28;20059;-82
2023/05/22 11:56:44;;;;;;;15.80;11.65;;;22.80;99.90;;;;;;5107053;27;20090;-82
2023/05/22 11:59:10;;;;;;;17.48;11.77;;;22.90;99.90;;;;;;5091975;28;20051;-82
2023/05/22 12:01:36;;;;;;;14.18;11.57;;;23.00;99.90;;;;;;5088895;28;20510;-81
2023/05/22 12:04:03;;;;;;;15.88;11.98;;;23.00;99.90;;;;;;5108785;28;20511;-82
2023/05/22 12:06:32;;;;;;;14.75;11.75;;;23.10;99.90;;;;;;5106405;28;20093;-82
2023/05/22 12:08:59;;;;;;;18.27;11.73;;;23.20;99.90;;;;;;5090647;28;20040;-82
2023/05/22 12:11:26;;;;;;;14.75;11.38;;;23.30;99.90;;;;;;5106941;28;20448;-82
2023/05/22 12:14:00;;;;;;;18.88;12.25;;;23.30;99.90;;;;;;5086844;28;20044;-82
2023/05/22 12:16:26;;;;;;;15.43;12.50;;;23.40;99.90;;;;;;5084400;27;20456;-82
2023/05/22 12:18:53;;;;;;;13.98;11.27;;;23.50;99.90;;;;;;5132607;27;20051;-82
2023/05/22 12:21:19;;;;;;;17.65;12.30;;;23.50;99.90;;;;;;5128865;27;20075;-81
2023/05/22 12:23:49;;;;;;;16.73;11.65;;;23.60;99.90;;;;;;5114321;27;20049;-82
2023/05/22 12:26:15;;;;;;;17.77;12.10;;;23.40;99.90;;;;;;5114708;27;20082;-82
2023/05/22 12:28:42;;;;;;;16.08;12.38;;;23.40;99.90;;;;;;5115805;27;20097;-82
2023/05/22 12:31:07;;;;;;;15.57;12.07;;;23.30;99.90;;;;;;5127416;27;20031;-83